Time;durP1;ratioP1;P1;durP2;ratioP2;P2;SDS_P1;SDS_P2;PMS_P1;PMS_P2;Temp;Humidity;BMP_temperature;BMP_pressure;BME280_temperature;BME280_humidity;BME280_pressure;Samples;Min_cycle;Max_cycle;Signal;HPM_P1;HPM_P2
2022/01/02 00:01:59;;;;;;;10.27;1.70;;;27.80;59.30;;;;;;5056629;28;20214;-79
2022/01/02 00:04:29;;;;;;;9.03;1.50;;;27.50;60.70;;;;;;5072361;28;20183;-74
2022/01/02 00:07:04;;;;;;;8.97;2.00;;;27.50;61.40;;;;;;5072783;28;20289;-76
2022/01/02 00:09:34;;;;;;;11.20;1.77;;;27.70;61.00;;;;;;5073409;28;21488;-77
2022/01/02 00:12:08;;;;;;;8.43;1.50;;;27.60;61.10;;;;;;5075333;28;20548;-78
2022/01/02 00:14:37;;;;;;;7.17;1.33;;;27.60;61.80;;;;;;5076114;28;20179;-78
2022/01/02 00:17:06;;;;;;;7.13;1.90;;;27.50;62.00;;;;;;5074984;28;20187;-75
2022/01/02 00:19:38;;;;;;;6.50;2.00;;;27.60;62.40;;;;;;5075403;28;20187;-74
2022/01/02 00:22:14;;;;;;;5.67;1.70;;;27.60;61.80;;;;;;5075819;28;20236;-75
2022/01/02 00:24:43;;;;;;;4.03;1.40;;;27.30;62.40;;;;;;5068584;28;20274;-74
2022/01/02 00:27:13;;;;;;;14.20;1.87;;;27.40;61.50;;;;;;5079999;28;20711;-77
2022/01/02 00:29:43;;;;;;;9.93;1.60;;;27.10;62.90;;;;;;5067922;28;20195;-74
2022/01/02 00:32:13;;;;;;;14.10;1.90;;;27.20;62.80;;;;;;5067456;28;20688;-74
2022/01/02 00:34:41;;;;;;;10.50;1.60;;;27.40;63.00;;;;;;5068170;28;20187;-82
2022/01/02 00:37:09;;;;;;;5.90;1.40;;;27.70;61.70;;;;;;5075005;28;20254;-78
2022/01/02 00:39:37;;;;;;;5.23;1.30;;;27.70;60.00;;;;;;5075232;28;20524;-75
2022/01/02 00:42:15;;;;;;;8.10;1.83;;;28.00;59.70;;;;;;5075165;28;20179;-75
2022/01/02 00:45:04;;;;;;;6.63;1.33;;;28.00;59.10;;;;;;5068094;28;20526;-77
2022/01/02 00:47:37;;;;;;;5.83;1.30;;;28.00;58.70;;;;;;5080085;28;20236;-73
2022/01/02 00:50:12;;;;;;;5.77;1.50;;;27.80;58.90;;;;;;5071111;28;20175;-78
2022/01/02 00:52:50;;;;;;;7.43;1.57;;;27.80;59.40;;;;;;5069762;28;20183;-80
2022/01/02 00:55:22;;;;;;;3.23;1.10;;;27.80;58.10;;;;;;5070874;28;20193;-79
2022/01/02 00:58:07;;;;;;;6.73;1.47;;;27.80;57.40;;;;;;5078640;28;20189;-78
2022/01/02 01:00:35;;;;;;;6.27;1.37;;;27.60;57.10;;;;;;5069776;28;20584;-75
2022/01/02 01:03:14;;;;;;;6.10;1.40;;;27.80;56.90;;;;;;5071996;28;20646;-78
2022/01/02 01:05:45;;;;;;;6.57;1.43;;;28.00;57.80;;;;;;5068471;28;20218;-76
2022/01/02 01:08:12;;;;;;;9.27;1.57;;;28.00;57.10;;;;;;5072566;28;20514;-76
2022/01/02 01:10:44;;;;;;;5.83;1.67;;;28.10;56.90;;;;;;5074962;28;20577;-75
2022/01/02 01:13:11;;;;;;;9.80;1.60;;;28.10;57.30;;;;;;5074666;28;20175;-77
2022/01/02 01:15:39;;;;;;;12.87;2.27;;;28.00;57.40;;;;;;5063450;28;20187;-76
2022/01/02 01:18:07;;;;;;;7.07;1.67;;;28.30;56.90;;;;;;5074351;28;20331;-77
2022/01/02 01:20:39;;;;;;;7.10;1.70;;;28.30;56.50;;;;;;5078162;28;20256;-80
2022/01/02 01:23:06;;;;;;;9.50;1.83;;;28.50;57.30;;;;;;5082384;28;20175;-76
2022/01/02 01:25:36;;;;;;;9.77;2.17;;;28.30;57.80;;;;;;5075167;28;20558;-77
2022/01/02 01:28:06;;;;;;;11.53;1.90;;;28.30;58.20;;;;;;5079348;28;20182;-75
2022/01/02 01:30:34;;;;;;;6.93;1.57;;;28.30;59.20;;;;;;5071732;28;20187;-75
2022/01/02 01:33:01;;;;;;;13.93;1.87;;;28.10;58.20;;;;;;5069711;28;20207;-73
2022/01/02 01:35:29;;;;;;;8.30;1.50;;;28.40;57.80;;;;;;5077971;28;20270;-84
2022/01/02 01:37:56;;;;;;;12.17;2.63;;;28.50;56.70;;;;;;5075090;28;20230;-78
2022/01/02 01:40:23;;;;;;;11.47;1.73;;;28.60;57.50;;;;;;5074599;28;20229;-79
2022/01/02 01:43:00;;;;;;;5.97;1.60;;;28.90;57.30;;;;;;5075731;28;20740;-82
2022/01/02 01:48:03;;;;;;;8.77;2.33;;;28.60;57.20;;;;;;5070829;28;20711;-82
2022/01/02 01:50:33;;;;;;;10.03;1.80;;;28.80;57.30;;;;;;5074991;28;20264;-80
2022/01/02 01:53:01;;;;;;;9.30;2.07;;;28.80;56.00;;;;;;5078418;28;20178;-77
2022/01/02 01:55:28;;;;;;;6.90;1.60;;;28.80;56.60;;;;;;5080090;28;20652;-79
2022/01/02 01:57:57;;;;;;;8.20;2.33;;;29.10;54.30;;;;;;5083024;28;20750;-80
2022/01/02 02:00:24;;;;;;;11.40;1.90;;;28.90;54.70;;;;;;5079317;28;20183;-82
2022/01/02 02:02:52;;;;;;;9.07;1.77;;;29.00;54.30;;;;;;5080099;28;20183;-84
2022/01/02 02:05:19;;;;;;;8.20;2.00;;;28.80;54.70;;;;;;5074659;28;20331;-76
2022/01/02 02:07:47;;;;;;;11.30;2.20;;;29.00;54.70;;;;;;5073685;28;20179;-79
2022/01/02 02:10:56;;;;;;;9.97;2.03;;;29.20;54.50;;;;;;5081377;28;20271;-85
2022/01/02 02:13:14;;;;;;;9.27;1.93;;;29.10;54.10;;;;;;5071925;28;20546;-90
2022/01/02 02:15:41;;;;;;;8.50;1.60;;;29.30;53.50;;;;;;5073296;28;20195;-79
2022/01/02 02:18:08;;;;;;;9.67;1.97;;;29.50;53.50;;;;;;5073321;28;20175;-77
2022/01/02 02:20:36;;;;;;;11.40;1.90;;;29.50;53.80;;;;;;5072221;28;20194;-73
2022/01/02 02:23:05;;;;;;;11.80;2.10;;;29.30;54.40;;;;;;5073338;28;20179;-75
2022/01/02 02:25:38;;;;;;;7.43;1.90;;;29.40;53.80;;;;;;5073124;28;20626;-86
2022/01/02 02:28:11;;;;;;;7.23;2.23;;;29.70;53.30;;;;;;5071141;28;20193;-92
2022/01/02 02:30:43;;;;;;;8.07;1.83;;;29.80;53.50;;;;;;5063400;28;20191;-80
2022/01/02 02:33:12;;;;;;;11.67;2.80;;;29.90;52.30;;;;;;5068189;28;20199;-80
2022/01/02 02:35:41;;;;;;;13.23;2.93;;;29.90;53.20;;;;;;5065935;28;20183;-80
2022/01/02 02:38:10;;;;;;;10.40;2.27;;;29.90;54.10;;;;;;5073730;28;20222;-76
2022/01/02 02:40:38;;;;;;;15.77;2.70;;;29.80;54.80;;;;;;5073173;28;20179;-84
2022/01/02 02:43:55;;;;;;;16.07;3.00;;;30.10;54.80;;;;;;5073019;28;20225;-77
2022/01/02 02:49:02;;;;;;;10.57;2.45;;;30.40;53.70;;;;;;5072901;28;20183;-81
2022/01/02 02:54:23;;;;;;;16.30;3.08;;;29.80;56.30;;;;;;5072885;28;20309;-74
2022/01/02 02:56:59;;;;;;;12.13;2.90;;;29.60;56.70;;;;;;5071216;28;20549;-80
2022/01/02 02:59:32;;;;;;;14.87;2.80;;;30.00;55.80;;;;;;5072575;28;20527;-81
2022/01/02 03:02:01;;;;;;;11.80;2.43;;;29.80;55.50;;;;;;5069297;28;20237;-79
2022/01/02 03:04:28;;;;;;;9.07;2.40;;;29.90;55.80;;;;;;5065737;28;20227;-84
2022/01/02 03:06:55;;;;;;;13.70;4.40;;;30.30;54.70;;;;;;5064952;28;20209;-81
2022/01/02 03:36:19;;;;;;;11.57;2.45;;;30.60;53.80;;;;;;5067284;28;20258;-74
2022/01/02 03:38:47;;;;;;;11.45;2.83;;;30.50;53.80;;;;;;5074202;28;20201;-78
2022/01/02 03:41:15;;;;;;;9.15;2.10;;;30.60;53.30;;;;;;5068118;28;20175;-78
2022/01/02 03:43:42;;;;;;;10.85;2.30;;;30.70;52.90;;;;;;5076348;28;20225;-81
2022/01/02 03:46:09;;;;;;;10.10;2.35;;;30.60;52.70;;;;;;5069589;28;20222;-80
2022/01/02 03:48:37;;;;;;;10.30;2.40;;;30.30;53.90;;;;;;5062369;28;20797;-84
2022/01/02 03:51:05;;;;;;;6.68;1.90;;;30.60;53.20;;;;;;5069213;28;20179;-81
2022/01/02 03:53:32;;;;;;;12.18;2.58;;;30.70;52.90;;;;;;5075449;28;20183;-82
2022/01/02 03:56:00;;;;;;;10.20;2.25;;;30.70;52.60;;;;;;5074356;28;20213;-77
2022/01/02 03:58:27;;;;;;;10.07;2.42;;;30.80;52.80;;;;;;5075237;28;20182;-83
2022/01/02 04:00:55;;;;;;;10.93;2.10;;;31.20;51.80;;;;;;5075345;28;20609;-79
2022/01/02 04:03:22;;;;;;;9.05;2.08;;;30.70;52.40;;;;;;5075931;28;20171;-78
2022/01/02 04:05:49;;;;;;;7.85;2.22;;;30.70;52.50;;;;;;5068068;28;20199;-79
2022/01/02 04:08:17;;;;;;;9.95;1.92;;;30.70;53.00;;;;;;5064623;28;20183;-78
2022/01/02 04:10:44;;;;;;;9.52;2.45;;;30.80;52.30;;;;;;5070061;28;20185;-89
2022/01/02 04:13:11;;;;;;;12.00;2.42;;;31.10;52.80;;;;;;5075658;28;20183;-79
2022/01/02 04:15:39;;;;;;;13.95;2.17;;;31.10;51.50;;;;;;5068222;28;20186;-82
2022/01/02 04:18:07;;;;;;;10.00;2.20;;;31.00;52.20;;;;;;5065935;28;20188;-78
2022/01/02 04:20:34;;;;;;;10.63;2.13;;;30.70;53.50;;;;;;5074664;28;20187;-79
2022/01/02 04:23:01;;;;;;;11.75;2.30;;;30.90;52.70;;;;;;5075583;28;20187;-77
2022/01/02 04:25:29;;;;;;;12.15;2.60;;;31.30;51.80;;;;;;5073889;28;20225;-79
2022/01/02 04:27:56;;;;;;;9.05;2.17;;;31.10;52.20;;;;;;5075823;28;20210;-88
2022/01/02 04:30:23;;;;;;;7.68;2.17;;;31.20;52.50;;;;;;5072719;28;20187;-82
2022/01/02 04:32:52;;;;;;;9.65;2.40;;;31.50;50.70;;;;;;5068723;28;20171;-76
2022/01/02 04:35:20;;;;;;;9.20;2.47;;;31.50;51.50;;;;;;5075165;28;20216;-80
2022/01/02 04:37:47;;;;;;;13.65;2.90;;;31.40;51.10;;;;;;5075464;28;20568;-85
2022/01/02 04:40:15;;;;;;;15.77;2.95;;;31.20;51.50;;;;;;5074799;28;20233;-80
2022/01/02 04:42:42;;;;;;;11.65;2.35;;;31.70;51.00;;;;;;5075423;28;20186;-80
2022/01/02 04:45:10;;;;;;;10.07;2.30;;;31.80;50.70;;;;;;5074632;28;20195;-80
2022/01/02 04:47:37;;;;;;;11.63;2.38;;;31.30;50.20;;;;;;5074932;28;20194;-81
2022/01/02 04:50:06;;;;;;;9.00;1.90;;;31.30;50.00;;;;;;5074480;28;20656;-77
2022/01/02 04:52:34;;;;;;;10.45;2.08;;;31.30;50.10;;;;;;5073958;28;20201;-80
2022/01/02 04:55:01;;;;;;;8.43;2.30;;;31.10;51.00;;;;;;5074940;28;20175;-82
2022/01/02 04:57:29;;;;;;;13.10;2.88;;;31.10;51.00;;;;;;5074621;28;20186;-79
2022/01/02 04:59:56;;;;;;;14.20;2.22;;;30.90;51.20;;;;;;5074924;28;20654;-80
2022/01/02 05:02:24;;;;;;;7.18;1.85;;;31.00;49.80;;;;;;5074307;28;20774;-80
2022/01/02 05:04:51;;;;;;;9.68;2.20;;;31.30;49.30;;;;;;5074848;28;20695;-82
2022/01/02 05:07:19;;;;;;;12.02;1.70;;;30.90;50.30;;;;;;5074896;28;20183;-78
2022/01/02 05:09:46;;;;;;;7.38;2.00;;;30.90;50.30;;;;;;5073907;28;20190;-81
2022/01/02 05:12:13;;;;;;;8.60;1.92;;;31.10;49.80;;;;;;5074646;28;20208;-80
2022/01/02 05:14:41;;;;;;;10.30;2.05;;;31.30;49.30;;;;;;5074821;28;20628;-78
2022/01/02 05:17:08;;;;;;;11.63;2.17;;;31.20;50.00;;;;;;5071111;28;20172;-79
2022/01/02 05:19:39;;;;;;;12.02;2.22;;;30.90;50.90;;;;;;5072552;28;20187;-80
2022/01/02 05:22:06;;;;;;;14.75;2.25;;;31.10;50.60;;;;;;5077995;28;20664;-78
2022/01/02 05:24:33;;;;;;;10.98;2.40;;;30.90;51.60;;;;;;5075850;28;20187;-77
2022/01/02 05:27:00;;;;;;;9.88;2.05;;;31.00;50.20;;;;;;5074955;28;20267;-82
2022/01/02 05:29:28;;;;;;;6.47;1.70;;;31.00;49.90;;;;;;5081922;28;20179;-80
2022/01/02 05:31:55;;;;;;;10.27;1.98;;;30.70;49.80;;;;;;5067858;28;20179;-78
2022/01/02 05:34:23;;;;;;;12.10;2.33;;;31.10;49.20;;;;;;5074213;28;20182;-78
2022/01/02 05:36:50;;;;;;;16.55;2.10;;;31.50;48.70;;;;;;5074136;28;20219;-79
2022/01/02 05:39:22;;;;;;;8.60;2.10;;;31.70;47.90;;;;;;5079686;28;20174;-81
2022/01/02 05:41:51;;;;;;;7.97;2.20;;;31.20;48.50;;;;;;5078674;28;20626;-78
2022/01/02 05:44:19;;;;;;;9.05;2.30;;;30.90;48.50;;;;;;5074207;28;20233;-78
2022/01/02 05:46:48;;;;;;;6.40;1.85;;;30.90;49.30;;;;;;5073404;28;20207;-76
2022/01/02 05:49:15;;;;;;;8.35;1.83;;;30.80;47.70;;;;;;5081083;28;20539;-79
2022/01/02 05:51:43;;;;;;;7.65;2.05;;;31.20;47.50;;;;;;5074444;28;20181;-82
2022/01/02 05:54:10;;;;;;;10.20;1.60;;;31.30;46.90;;;;;;5078682;28;20171;-76
2022/01/02 05:56:38;;;;;;;14.30;2.13;;;31.10;47.20;;;;;;5081685;28;20683;-83
2022/01/02 05:59:05;;;;;;;9.52;1.88;;;31.10;47.50;;;;;;5074405;28;20191;-77
2022/01/02 06:01:33;;;;;;;7.20;1.77;;;31.10;47.00;;;;;;5072901;28;20175;-80
2022/01/02 06:04:00;;;;;;;11.80;2.15;;;30.80;47.90;;;;;;5076379;28;20177;-80
2022/01/02 06:06:28;;;;;;;9.05;1.90;;;30.70;48.70;;;;;;5073663;28;20214;-79
2022/01/02 06:08:55;;;;;;;7.38;1.60;;;30.80;47.80;;;;;;5073009;28;20183;-77
2022/01/02 06:11:22;;;;;;;9.95;1.80;;;31.10;46.70;;;;;;5086372;28;20176;-78
2022/01/02 06:13:50;;;;;;;9.30;1.70;;;31.10;46.60;;;;;;5088340;28;20175;-82
2022/01/02 06:16:17;;;;;;;6.85;1.73;;;31.40;46.50;;;;;;5070027;28;20508;-80
2022/01/02 06:18:44;;;;;;;10.68;2.05;;;31.00;46.40;;;;;;5077774;28;20175;-81
2022/01/02 06:21:12;;;;;;;6.50;1.92;;;30.90;46.80;;;;;;5079853;28;20179;-75
2022/01/02 06:23:39;;;;;;;6.82;1.73;;;31.10;47.10;;;;;;5081672;28;20184;-79
2022/01/02 06:26:07;;;;;;;9.55;2.13;;;31.40;46.50;;;;;;5078991;28;20199;-79
2022/01/02 06:28:34;;;;;;;7.93;1.92;;;31.40;47.00;;;;;;5080422;28;20175;-78
2022/01/02 06:31:01;;;;;;;11.00;2.40;;;31.50;46.70;;;;;;5068947;28;20695;-79
2022/01/02 06:33:29;;;;;;;13.38;4.93;;;31.00;48.10;;;;;;5076566;28;20183;-78
2022/01/02 06:35:56;;;;;;;11.15;2.78;;;31.30;48.00;;;;;;5073043;28;20175;-80
2022/01/02 06:38:24;;;;;;;8.68;2.35;;;31.30;47.90;;;;;;5072814;28;20219;-81
2022/01/02 06:40:51;;;;;;;7.15;2.17;;;31.20;49.10;;;;;;5073979;28;20189;-85
2022/01/02 06:43:19;;;;;;;7.82;1.83;;;31.20;49.00;;;;;;5074670;28;20677;-81
2022/01/02 06:45:49;;;;;;;14.48;2.50;;;30.90;49.20;;;;;;5072805;28;20260;-84
2022/01/02 06:48:17;;;;;;;8.73;2.17;;;31.00;50.20;;;;;;5072985;28;20221;-76
2022/01/02 06:50:44;;;;;;;9.75;2.22;;;31.20;49.90;;;;;;5074153;28;20184;-80
2022/01/02 06:53:12;;;;;;;11.70;2.10;;;31.30;48.90;;;;;;5073388;28;20171;-80
2022/01/02 06:55:39;;;;;;;11.25;2.00;;;30.50;50.60;;;;;;5075012;28;20186;-79
2022/01/02 06:58:06;;;;;;;13.18;2.33;;;30.30;51.60;;;;;;5075926;28;20187;-77
2022/01/02 07:00:34;;;;;;;6.93;1.95;;;30.30;52.10;;;;;;5072814;28;20182;-78
2022/01/02 07:03:01;;;;;;;15.43;2.33;;;30.60;51.80;;;;;;5072772;28;20265;-80
2022/01/02 07:05:29;;;;;;;9.10;1.98;;;30.20;52.70;;;;;;5079370;28;20202;-75
2022/01/02 07:07:56;;;;;;;10.43;2.20;;;30.30;52.40;;;;;;5073074;28;20675;-84
2022/01/02 07:10:23;;;;;;;9.80;2.70;;;29.90;54.20;;;;;;5072900;28;20642;-82
2022/01/02 07:12:51;;;;;;;14.52;3.55;;;29.80;54.60;;;;;;5081318;28;20186;-75
2022/01/02 07:15:18;;;;;;;13.65;2.63;;;30.00;53.90;;;;;;5072549;28;20190;-81
2022/01/02 07:17:46;;;;;;;12.60;1.92;;;29.70;54.90;;;;;;5071492;28;20191;-76
2022/01/02 07:20:14;;;;;;;17.00;3.40;;;29.30;55.60;;;;;;5073145;28;20205;-77
2022/01/02 07:22:42;;;;;;;10.03;2.17;;;29.20;56.40;;;;;;5073228;28;20195;-75
2022/01/02 07:25:12;;;;;;;11.47;2.57;;;28.80;57.20;;;;;;5073708;28;20175;-77
2022/01/02 07:27:39;;;;;;;11.60;2.33;;;28.30;57.90;;;;;;5075052;28;20657;-77
2022/01/02 07:30:08;;;;;;;14.00;2.60;;;28.00;58.80;;;;;;5088821;28;20193;-75
2022/01/02 07:32:37;;;;;;;10.93;2.23;;;27.90;60.00;;;;;;5087875;28;20229;-76
2022/01/02 07:35:06;;;;;;;14.13;2.20;;;27.70;61.50;;;;;;5083017;28;20171;-79
2022/01/02 07:37:35;;;;;;;13.10;2.80;;;27.60;62.40;;;;;;5084919;28;20228;-75
2022/01/02 07:40:04;;;;;;;13.23;2.57;;;27.50;62.60;;;;;;5081689;28;20179;-73
2022/01/02 07:42:32;;;;;;;11.13;2.83;;;27.40;61.80;;;;;;5085349;28;20214;-80
2022/01/02 07:44:59;;;;;;;15.07;3.17;;;27.20;61.90;;;;;;5077819;28;20179;-75
2022/01/02 07:47:27;;;;;;;14.97;2.30;;;27.20;62.00;;;;;;5072691;28;20264;-74
2022/01/02 07:49:54;;;;;;;13.23;2.63;;;27.00;62.00;;;;;;5072691;28;20225;-81
2022/01/02 07:52:21;;;;;;;14.70;2.60;;;27.00;62.20;;;;;;5077471;28;20538;-75
2022/01/02 07:54:49;;;;;;;13.63;2.83;;;26.70;61.90;;;;;;5072359;28;20179;-77
2022/01/02 07:57:16;;;;;;;10.43;1.77;;;26.80;62.80;;;;;;5072700;28;20201;-75
2022/01/02 07:59:43;;;;;;;13.97;2.80;;;26.60;61.00;;;;;;5072516;28;20194;-78
2022/01/02 08:02:11;;;;;;;12.33;3.00;;;26.60;61.50;;;;;;5072078;28;20187;-81
2022/01/02 08:04:38;;;;;;;12.97;2.37;;;26.60;63.20;;;;;;5065663;28;20580;-75
2022/01/02 08:07:05;;;;;;;12.57;2.13;;;26.40;64.10;;;;;;5073536;28;20211;-81
2022/01/02 08:09:33;;;;;;;17.87;3.00;;;26.30;64.90;;;;;;5072036;28;20201;-76
2022/01/02 08:12:00;;;;;;;10.60;2.37;;;26.10;66.10;;;;;;5073387;28;20180;-81
2022/01/02 08:14:28;;;;;;;15.00;2.40;;;25.90;66.10;;;;;;5071647;28;20198;-76
2022/01/02 08:16:55;;;;;;;10.13;2.60;;;25.90;66.30;;;;;;5071418;28;20522;-76
2022/01/02 08:19:22;;;;;;;18.13;2.40;;;25.80;66.80;;;;;;5071247;28;20209;-75
2022/01/02 08:21:49;;;;;;;13.97;2.40;;;25.70;67.40;;;;;;5066164;28;20188;-74
2022/01/02 08:24:17;;;;;;;18.03;2.87;;;25.80;67.70;;;;;;5068913;28;20702;-80
2022/01/02 08:26:46;;;;;;;14.37;2.80;;;25.60;68.10;;;;;;5059890;28;20603;-79
2022/01/02 08:29:14;;;;;;;13.03;2.60;;;25.40;68.60;;;;;;5071632;28;20258;-78
2022/01/02 08:31:41;;;;;;;12.70;2.47;;;25.40;69.20;;;;;;5068248;28;20183;-79
2022/01/02 08:34:08;;;;;;;12.93;2.40;;;25.30;69.40;;;;;;5066947;28;20176;-73
2022/01/02 08:36:36;;;;;;;15.50;2.50;;;25.20;69.60;;;;;;5074455;28;20294;-76
2022/01/02 08:39:04;;;;;;;18.13;3.37;;;25.20;70.20;;;;;;5074199;28;20195;-80
2022/01/02 08:41:31;;;;;;;13.63;2.90;;;25.10;70.90;;;;;;5074934;28;20175;-77
2022/01/02 08:43:59;;;;;;;18.20;2.87;;;25.00;71.10;;;;;;5075556;28;20262;-74
2022/01/02 08:46:26;;;;;;;14.83;2.33;;;24.90;71.90;;;;;;5066906;28;20211;-80
2022/01/02 08:48:53;;;;;;;19.43;3.13;;;24.80;71.80;;;;;;5075256;28;20583;-76
2022/01/02 08:51:21;;;;;;;19.50;2.90;;;24.90;72.20;;;;;;5074783;28;20403;-76
2022/01/02 08:53:48;;;;;;;18.80;3.00;;;24.90;71.50;;;;;;5069332;28;20301;-78
2022/01/02 08:56:16;;;;;;;15.10;2.73;;;24.80;71.40;;;;;;5073294;28;20223;-85
2022/01/02 08:58:43;;;;;;;14.70;3.27;;;24.80;71.50;;;;;;5074371;28;20237;-75
2022/01/02 09:01:10;;;;;;;19.57;3.03;;;24.70;72.00;;;;;;5071385;28;20296;-77
2022/01/02 09:03:38;;;;;;;15.37;2.83;;;24.70;71.70;;;;;;5066828;28;20643;-77
2022/01/02 09:06:05;;;;;;;17.83;2.57;;;24.60;72.00;;;;;;5066344;28;20342;-78
2022/01/02 09:08:32;;;;;;;15.47;2.80;;;24.50;72.20;;;;;;5071655;28;20176;-80
2022/01/02 09:11:00;;;;;;;14.70;2.70;;;24.50;73.30;;;;;;5074182;28;20629;-76
2022/01/02 09:13:27;;;;;;;8.87;2.20;;;24.50;73.70;;;;;;5073014;28;20312;-79
2022/01/02 09:15:55;;;;;;;16.30;3.17;;;24.50;74.00;;;;;;5074418;28;20175;-76
2022/01/02 09:18:22;;;;;;;16.27;2.80;;;24.40;74.50;;;;;;5070931;28;20294;-77
2022/01/02 09:20:50;;;;;;;16.03;3.03;;;24.50;74.80;;;;;;5070877;28;20202;-81
2022/01/02 09:23:17;;;;;;;12.77;2.83;;;24.40;75.10;;;;;;5073575;28;20183;-76
2022/01/02 09:25:45;;;;;;;20.60;3.20;;;24.40;74.90;;;;;;5071347;28;20218;-78
2022/01/02 09:28:12;;;;;;;13.53;2.57;;;24.30;75.10;;;;;;5072947;28;20183;-80
2022/01/02 09:30:40;;;;;;;20.93;3.30;;;24.30;75.50;;;;;;5069186;28;20647;-80
2022/01/02 09:33:10;;;;;;;13.77;2.60;;;24.30;75.90;;;;;;5071974;28;20190;-82
2022/01/02 09:35:41;;;;;;;20.00;3.47;;;24.30;76.20;;;;;;5066656;28;20259;-77
2022/01/02 09:38:09;;;;;;;19.80;3.43;;;24.30;76.30;;;;;;5067332;28;20227;-74
2022/01/02 09:40:37;;;;;;;20.50;3.00;;;24.30;76.40;;;;;;5072858;28;20274;-78
2022/01/02 09:43:05;;;;;;;18.40;3.20;;;24.20;76.50;;;;;;5073395;28;20266;-74
2022/01/02 09:45:38;;;;;;;12.23;2.37;;;24.20;76.90;;;;;;5073672;28;20289;-75
2022/01/02 09:48:07;;;;;;;22.93;3.53;;;24.20;76.70;;;;;;5073740;28;20629;-80
2022/01/02 09:50:37;;;;;;;15.93;2.60;;;24.10;76.60;;;;;;5070726;28;20178;-79
2022/01/02 09:53:05;;;;;;;16.83;2.50;;;24.20;76.40;;;;;;5073759;28;20179;-76
2022/01/02 09:55:33;;;;;;;16.87;2.70;;;24.20;76.60;;;;;;5073443;28;20183;-78
2022/01/02 09:58:04;;;;;;;19.23;2.93;;;24.10;76.80;;;;;;5069987;28;20206;-78
2022/01/02 10:00:31;;;;;;;16.70;2.87;;;24.10;76.80;;;;;;5073739;28;20194;-74
2022/01/02 10:03:03;;;;;;;15.57;2.93;;;24.10;76.90;;;;;;5067283;28;20301;-75
2022/01/02 10:05:48;;;;;;;24.07;4.03;;;24.10;77.00;;;;;;5073274;28;20210;-76
2022/01/02 10:08:26;;;;;;;16.90;3.07;;;24.10;77.10;;;;;;5073715;28;20179;-78
2022/01/02 10:11:19;;;;;;;15.70;3.50;;;24.10;77.30;;;;;;5073415;28;20175;-77
2022/01/02 10:13:49;;;;;;;22.43;3.40;;;24.00;77.60;;;;;;5063003;28;20202;-74
2022/01/02 10:16:34;;;;;;;13.83;2.87;;;24.00;78.00;;;;;;5072814;28;20171;-76
2022/01/02 10:19:38;;;;;;;17.90;2.80;;;23.90;78.20;;;;;;5069095;28;20680;-73
2022/01/02 10:22:09;;;;;;;19.80;3.43;;;24.00;78.50;;;;;;5065664;28;20237;-73
2022/01/02 10:24:40;;;;;;;15.90;2.90;;;23.90;78.70;;;;;;5072663;28;20185;-74
2022/01/02 10:27:10;;;;;;;18.93;3.37;;;23.90;78.70;;;;;;5068679;28;20215;-75
2022/01/02 10:29:46;;;;;;;15.63;2.90;;;23.90;78.30;;;;;;5068105;28;20179;-74
2022/01/02 10:32:32;;;;;;;25.20;3.80;;;23.90;78.00;;;;;;5061861;28;20179;-75
2022/01/02 10:35:13;;;;;;;17.03;2.47;;;23.90;77.50;;;;;;5068424;28;20259;-73
2022/01/02 10:37:47;;;;;;;23.20;2.90;;;23.90;77.50;;;;;;5065882;28;20223;-80
2022/01/02 10:40:42;;;;;;;23.37;3.87;;;23.90;77.70;;;;;;5071655;28;20876;-75
2022/01/02 10:43:40;;;;;;;15.47;2.87;;;23.90;77.70;;;;;;5068253;28;20540;-75
2022/01/02 10:46:09;;;;;;;21.30;3.37;;;23.80;77.80;;;;;;5069542;28;20213;-77
2022/01/02 10:48:42;;;;;;;15.63;3.00;;;23.80;77.60;;;;;;5070860;28;20186;-78
2022/01/02 10:51:17;;;;;;;18.27;3.53;;;23.80;77.60;;;;;;5071393;28;20186;-76
2022/01/02 10:53:54;;;;;;;21.60;3.70;;;23.80;77.40;;;;;;5059807;28;20937;-75
2022/01/02 10:56:24;;;;;;;11.73;2.70;;;23.80;77.10;;;;;;5068739;28;20204;-74
2022/01/02 10:58:52;;;;;;;16.00;2.57;;;23.80;77.20;;;;;;5072646;28;20236;-75
2022/01/02 11:01:20;;;;;;;13.07;2.57;;;23.80;77.30;;;;;;5070068;28;20183;-75
2022/01/02 11:03:49;;;;;;;16.53;2.40;;;23.80;77.10;;;;;;5068787;28;20270;-76
2022/01/02 11:06:29;;;;;;;13.50;3.13;;;23.80;77.20;;;;;;5072033;28;20218;-75
2022/01/02 11:08:59;;;;;;;18.43;3.00;;;23.80;77.10;;;;;;5067075;28;20707;-74
2022/01/02 11:11:26;;;;;;;18.80;3.20;;;23.80;77.30;;;;;;5069729;28;20202;-74
2022/01/02 11:13:56;;;;;;;15.90;3.40;;;23.80;77.60;;;;;;5072729;28;20274;-76
2022/01/02 11:16:25;;;;;;;23.37;2.60;;;23.70;77.50;;;;;;5069481;28;20197;-74
2022/01/02 11:18:53;;;;;;;15.00;2.87;;;23.70;77.30;;;;;;5072438;28;20540;-80
2022/01/02 11:21:24;;;;;;;13.23;2.93;;;23.70;77.40;;;;;;5066434;28;20661;-78
2022/01/02 11:24:01;;;;;;;16.83;4.57;;;23.70;77.30;;;;;;5071096;28;20184;-78
2022/01/02 11:26:41;;;;;;;18.07;3.17;;;23.70;77.40;;;;;;5067095;28;20272;-78
2022/01/02 11:29:08;;;;;;;16.67;3.03;;;23.70;77.30;;;;;;5064414;28;20197;-77
2022/01/02 11:31:40;;;;;;;16.80;2.87;;;23.70;77.40;;;;;;5066252;28;20175;-75
2022/01/02 11:34:28;;;;;;;22.13;3.03;;;23.70;77.50;;;;;;5064687;28;20626;-77
2022/01/02 11:37:14;;;;;;;17.27;3.07;;;23.60;77.80;;;;;;5058590;28;20215;-75
2022/01/02 11:40:02;;;;;;;19.63;2.90;;;23.60;78.30;;;;;;5063521;28;20179;-75
2022/01/02 11:42:40;;;;;;;18.67;2.77;;;23.60;78.60;;;;;;5071627;28;20641;-79
2022/01/02 11:45:09;;;;;;;15.10;3.10;;;23.60;78.80;;;;;;5070420;28;20186;-74
2022/01/02 11:47:42;;;;;;;16.80;2.93;;;23.60;79.00;;;;;;5071655;28;20187;-77
2022/01/02 11:50:30;;;;;;;21.57;3.20;;;23.50;79.10;;;;;;5072302;28;20600;-78
2022/01/02 11:53:17;;;;;;;16.87;3.53;;;23.60;78.90;;;;;;5067386;28;20175;-75
2022/01/02 11:55:47;;;;;;;21.13;2.20;;;23.60;79.10;;;;;;5065602;28;20179;-76
2022/01/02 11:58:46;;;;;;;18.40;3.10;;;23.60;79.30;;;;;;5070503;28;20176;-78
2022/01/02 12:01:47;;;;;;;21.07;3.20;;;23.60;79.40;;;;;;5072467;28;20175;-79
2022/01/02 12:04:14;;;;;;;24.53;4.03;;;23.60;79.60;;;;;;5073596;28;20178;-73
2022/01/02 12:06:44;;;;;;;15.77;3.50;;;23.50;79.70;;;;;;5069168;28;20431;-81
2022/01/02 12:09:36;;;;;;;25.70;3.70;;;23.50;80.00;;;;;;5075579;28;20652;-77
2022/01/02 12:12:06;;;;;;;22.97;3.00;;;23.50;79.80;;;;;;5076242;28;20171;-73
2022/01/02 12:14:51;;;;;;;16.57;2.87;;;23.60;80.00;;;;;;5075971;28;20190;-74
2022/01/02 12:17:23;;;;;;;20.90;3.27;;;23.50;80.10;;;;;;5074820;28;20178;-74
2022/01/02 12:20:05;;;;;;;17.57;3.60;;;23.50;80.40;;;;;;5070156;28;20179;-74
2022/01/02 12:22:45;;;;;;;20.10;3.37;;;23.50;80.50;;;;;;5075846;28;20183;-76
2022/01/02 12:25:18;;;;;;;17.60;2.80;;;23.50;80.60;;;;;;5071728;28;20263;-77
2022/01/02 12:27:49;;;;;;;27.50;3.50;;;23.50;80.70;;;;;;5070559;28;20187;-74
2022/01/02 12:30:17;;;;;;;27.60;4.10;;;23.50;80.60;;;;;;5072444;28;20197;-77
2022/01/02 12:32:47;;;;;;;20.83;3.40;;;23.50;80.60;;;;;;5068910;28;20714;-73
2022/01/02 12:35:15;;;;;;;16.43;2.60;;;23.50;80.30;;;;;;5074979;28;20178;-75
2022/01/02 12:37:43;;;;;;;22.73;4.27;;;23.50;80.30;;;;;;5075542;28;20227;-75
2022/01/02 12:40:15;;;;;;;21.60;3.83;;;23.50;80.30;;;;;;5075235;28;20542;-76
2022/01/02 12:42:44;;;;;;;19.53;3.20;;;23.40;80.30;;;;;;5068436;28;20538;-73
2022/01/02 12:45:11;;;;;;;17.00;2.97;;;23.40;80.30;;;;;;5074881;28;20179;-74
2022/01/02 12:47:52;;;;;;;18.47;3.03;;;23.40;80.50;;;;;;5075025;28;20228;-74
2022/01/02 12:50:30;;;;;;;15.70;2.93;;;23.30;80.70;;;;;;5074957;28;20179;-74
2022/01/02 12:52:59;;;;;;;16.63;3.80;;;23.30;80.10;;;;;;5075357;28;20186;-72
2022/01/02 12:55:29;;;;;;;23.10;3.33;;;23.40;80.10;;;;;;5073443;28;20511;-74
2022/01/02 12:58:07;;;;;;;15.93;2.57;;;23.40;79.90;;;;;;5074860;28;20195;-74
2022/01/02 13:00:35;;;;;;;22.93;3.23;;;23.50;79.00;;;;;;5074651;28;20206;-73
2022/01/02 13:03:02;;;;;;;18.30;2.93;;;23.50;79.10;;;;;;5066890;28;20386;-72
2022/01/02 13:05:30;;;;;;;28.30;3.43;;;23.50;79.10;;;;;;5074400;28;20203;-78
2022/01/02 13:08:01;;;;;;;28.53;2.90;;;23.50;78.60;;;;;;5075036;28;20195;-74
2022/01/02 13:10:29;;;;;;;16.83;3.47;;;23.50;78.40;;;;;;5073592;28;20666;-79
2022/01/02 13:12:56;;;;;;;20.07;4.00;;;23.60;77.50;;;;;;5073524;28;20187;-74
2022/01/02 13:15:24;;;;;;;19.97;3.13;;;23.60;77.20;;;;;;5074583;28;20537;-73
2022/01/02 13:17:56;;;;;;;13.43;2.73;;;23.60;77.10;;;;;;5074541;28;20187;-72
2022/01/02 13:20:34;;;;;;;12.70;2.43;;;23.60;76.80;;;;;;5066970;28;20210;-74
2022/01/02 13:23:01;;;;;;;17.37;3.13;;;23.60;76.70;;;;;;5064146;28;20215;-73
2022/01/02 13:25:40;;;;;;;13.00;2.60;;;23.60;76.60;;;;;;5073218;28;20207;-73
2022/01/02 13:28:16;;;;;;;15.67;2.50;;;23.60;76.80;;;;;;5065979;28;20182;-73
2022/01/02 13:30:58;;;;;;;14.67;2.77;;;23.60;76.60;;;;;;5066366;28;20183;-72
2022/01/02 13:33:31;;;;;;;17.47;2.97;;;23.60;76.80;;;;;;5071815;28;20179;-73